createdAt,value
2022-11-09T00:01:29.763Z,99373.03
2022-11-09T00:04:00.132Z,99375.78
2022-11-09T00:06:30.434Z,99377.72
2022-11-09T00:09:07.121Z,99375.25
2022-11-09T00:11:36.431Z,99379.94
2022-11-09T00:14:04.792Z,99377.47
2022-11-09T00:16:33.419Z,99384.06
2022-11-09T00:19:01.801Z,99387.13
2022-11-09T00:21:30.219Z,99388.75
2022-11-09T00:24:00.026Z,99391.25
2022-11-09T00:26:28.823Z,99385.44
2022-11-09T00:28:57.199Z,99382.13
2022-11-09T00:31:26.518Z,99377.16
2022-11-09T00:33:57.462Z,99387.91
2022-11-09T00:36:27.790Z,99388.16
2022-11-09T00:38:59.855Z,99389.00
2022-11-09T00:41:29.107Z,99379.88
2022-11-09T00:43:57.522Z,99382.66
2022-11-09T00:46:26.239Z,99378.22
2022-11-09T00:48:56.863Z,99385.66
2022-11-09T00:51:25.627Z,99389.25
2022-11-09T00:53:54.904Z,99393.94
2022-11-09T00:56:25.172Z,99381.81
2022-11-09T00:58:56.005Z,99380.72
2022-11-09T01:01:24.792Z,99380.13
2022-11-09T01:03:53.282Z,99376.28
2022-11-09T01:06:23.880Z,99377.38
2022-11-09T01:08:53.074Z,99380.66
2022-11-09T01:11:22.939Z,99379.56
2022-11-09T01:13:53.113Z,99378.44
2022-11-09T01:16:23.940Z,99380.94
2022-11-09T01:18:55.731Z,99373.50
2022-11-09T01:21:24.396Z,99378.72
2022-11-09T01:23:52.763Z,99374.56
2022-11-09T01:26:21.591Z,99380.63
2022-11-09T01:28:49.923Z,99368.50
2022-11-09T01:31:22.259Z,99368.75
2022-11-09T01:33:50.837Z,99369.28
2022-11-09T01:36:22.177Z,99362.97
2022-11-09T01:38:51.603Z,99359.91
2022-11-09T01:41:23.531Z,99359.91
2022-11-09T01:44:11.967Z,99362.13
2022-11-09T01:46:49.707Z,99360.75
2022-11-09T01:49:37.766Z,99362.91
2022-11-09T01:52:13.237Z,99353.25
2022-11-09T01:54:45.773Z,99351.03
2022-11-09T01:57:20.378Z,99359.31
2022-11-09T01:59:56.007Z,99348.28
2022-11-09T02:02:26.311Z,99353.81
2022-11-09T02:05:00.870Z,99351.03
2022-11-09T02:07:29.958Z,99352.41
2022-11-09T02:10:04.327Z,99357.13
2022-11-09T02:12:36.407Z,99351.03
2022-11-09T02:15:08.296Z,99350.25
2022-11-09T02:17:38.859Z,99345.53
2022-11-09T02:20:13.131Z,99349.41
2022-11-09T02:22:42.797Z,99350.25
2022-11-09T02:25:13.594Z,99350.25
2022-11-09T02:27:43.696Z,99349.41
2022-11-09T02:30:14.680Z,99359.59
2022-11-09T02:32:43.100Z,99363.75
2022-11-09T02:35:13.609Z,99375.34
2022-11-09T02:37:48.828Z,99363.47
2022-11-09T02:40:22.301Z,99362.06
2022-11-09T02:42:50.662Z,99364.00
2022-11-09T02:45:19.261Z,99354.59
2022-11-09T02:47:47.640Z,99352.91
2022-11-09T02:50:17.723Z,99346.28
2022-11-09T02:52:46.083Z,99353.97
2022-11-09T02:55:14.555Z,99346.84
2022-11-09T02:57:44.400Z,99352.34
2022-11-09T03:00:14.268Z,99351.53
2022-11-09T03:02:43.348Z,99349.59
2022-11-09T03:05:12.302Z,99351.53
2022-11-09T03:07:42.049Z,99342.72
2022-11-09T03:10:11.101Z,99341.34
2022-11-09T03:12:39.516Z,99349.91
2022-11-09T03:15:10.471Z,99347.16
2022-11-09T03:17:38.942Z,99351.56
2022-11-09T03:20:09.508Z,99342.47
2022-11-09T03:22:37.818Z,99346.56
2022-11-09T03:25:09.303Z,99346.88
2022-11-09T03:27:37.706Z,99354.03
2022-11-09T03:30:07.913Z,99352.91
2022-11-09T03:32:36.318Z,99354.28
2022-11-09T03:35:05.007Z,99355.13
2022-11-09T03:37:33.431Z,99352.88
2022-11-09T03:40:01.817Z,99360.59
2022-11-09T03:42:31.640Z,99357.56
2022-11-09T03:44:59.970Z,99352.84
2022-11-09T03:47:28.294Z,99362.78
2022-11-09T03:49:56.690Z,99358.91
2022-11-09T03:52:25.093Z,99366.09
2022-11-09T03:54:53.429Z,99354.75
2022-11-09T03:57:21.763Z,99356.69
2022-11-09T03:59:51.628Z,99369.97
2022-11-09T04:02:20.037Z,99360.84
2022-11-09T04:04:48.423Z,99350.63
2022-11-09T04:07:16.972Z,99352.81
2022-11-09T04:09:45.392Z,99356.38
2022-11-09T04:12:13.806Z,99356.13
2022-11-09T04:14:42.174Z,99355.81
2022-11-09T04:17:11.915Z,99346.97
2022-11-09T04:19:40.297Z,99342.81
2022-11-09T04:22:08.803Z,99339.44
2022-11-09T04:24:37.405Z,99336.13
2022-11-09T04:27:05.949Z,99335.03
2022-11-09T04:29:34.423Z,99335.03
2022-11-09T04:32:02.782Z,99327.53
2022-11-09T04:34:32.502Z,99331.97
2022-11-09T04:37:00.982Z,99327.78
2022-11-09T04:39:29.335Z,99327.78
2022-11-09T04:41:57.676Z,99327.78
2022-11-09T04:44:26.109Z,99325.88
2022-11-09T04:46:54.491Z,99321.44
2022-11-09T04:49:22.945Z,99321.44
2022-11-09T04:51:52.825Z,99321.22
2022-11-09T04:54:21.158Z,99316.78
2022-11-09T04:56:49.519Z,99328.13
2022-11-09T04:59:17.862Z,99327.59
2022-11-09T05:01:46.246Z,99325.63
2022-11-09T05:04:14.950Z,99322.06
2022-11-09T05:06:43.495Z,99320.13
2022-11-09T05:09:13.258Z,99310.72
2022-11-09T05:11:41.603Z,99314.84
2022-11-09T05:14:09.977Z,99307.94
2022-11-09T05:16:38.337Z,99316.75
2022-11-09T05:19:06.707Z,99323.91
2022-11-09T05:21:35.197Z,99322.81
2022-11-09T05:24:03.007Z,99327.50
2022-11-09T05:26:35.540Z,99327.78
2022-11-09T05:29:06.597Z,99326.97
2022-11-09T05:31:35.801Z,99331.66
2022-11-09T05:34:05.811Z,99336.09
2022-11-09T05:36:34.738Z,99341.91
2022-11-09T05:39:03.135Z,99344.09
2022-11-09T05:41:32.897Z,99346.88
2022-11-09T05:44:01.242Z,99351.88
2022-11-09T05:46:31.605Z,99344.19
2022-11-09T05:48:59.977Z,99347.50
2022-11-09T05:51:28.358Z,99345.03
2022-11-09T05:53:56.736Z,99353.31
2022-11-09T05:56:25.155Z,99345.03
2022-11-09T05:58:54.933Z,99343.09
2022-11-09T06:01:23.295Z,99345.56
2022-11-09T06:03:54.462Z,99341.97
2022-11-09T06:06:22.869Z,99345.28
2022-11-09T06:08:51.258Z,99341.16
2022-11-09T06:11:23.834Z,99356.09
2022-11-09T06:13:54.427Z,99357.19
2022-11-09T06:16:22.970Z,99363.81
2022-11-09T06:18:51.296Z,99359.41
2022-11-09T06:21:19.818Z,99359.72
2022-11-09T06:23:48.325Z,99355.59
2022-11-09T06:26:16.749Z,99357.53
2022-11-09T06:28:45.182Z,99358.91
2022-11-09T06:31:17.712Z,99358.69
2022-11-09T06:33:46.117Z,99356.19
2022-11-09T06:36:14.521Z,99360.88
2022-11-09T06:38:43.168Z,99356.47
2022-11-09T06:41:11.917Z,99356.47
2022-11-09T06:43:40.349Z,99355.94
2022-11-09T06:46:10.972Z,99359.81
2022-11-09T06:48:40.993Z,99355.13
2022-11-09T06:51:09.504Z,99353.97
2022-11-09T06:53:38.676Z,99344.91
2022-11-09T06:56:08.821Z,99350.44
2022-11-09T06:58:37.911Z,99347.06
2022-11-09T07:01:12.773Z,99348.44
2022-11-09T07:03:42.665Z,99349.78
2022-11-09T07:06:13.533Z,99349.22
2022-11-09T07:08:42.576Z,99349.75
2022-11-09T07:11:13.958Z,99344.25
2022-11-09T07:13:42.327Z,99352.53
2022-11-09T07:16:12.879Z,99337.31
2022-11-09T07:18:42.757Z,99346.13
2022-11-09T07:21:14.201Z,99345.03
2022-11-09T07:23:43.379Z,99341.97
2022-11-09T07:26:11.841Z,99337.28
2022-11-09T07:28:40.328Z,99338.66
2022-11-09T07:31:09.590Z,99346.34
2022-11-09T07:33:38.412Z,99342.72
2022-11-09T07:36:08.937Z,99349.31
2022-11-09T07:38:37.362Z,99350.91
2022-11-09T07:41:06.104Z,99355.56
2022-11-09T07:43:34.688Z,99357.25
2022-11-09T07:46:05.781Z,99352.81
2022-11-09T07:48:34.476Z,99350.88
2022-11-09T07:51:03.787Z,99360.81
2022-11-09T07:53:33.869Z,99365.81
2022-11-09T07:56:04.440Z,99370.78
2022-11-09T07:58:34.395Z,99361.97
2022-11-09T08:01:03.049Z,99368.38
2022-11-09T08:03:31.443Z,99385.50
2022-11-09T08:05:59.930Z,99381.38
2022-11-09T08:08:28.510Z,99389.41
2022-11-09T08:10:59.795Z,99381.38
2022-11-09T08:13:28.191Z,99381.38
2022-11-09T08:15:56.671Z,99393.28
2022-11-09T08:18:25.281Z,99387.75
2022-11-09T08:20:53.693Z,99397.69
2022-11-09T08:23:23.154Z,99391.88
2022-11-09T08:25:52.379Z,99396.00
2022-11-09T08:28:22.945Z,99383.00
2022-11-09T08:30:58.624Z,99378.06
2022-11-09T08:33:28.394Z,99369.78
2022-11-09T08:35:57.071Z,99367.00
2022-11-09T08:38:25.547Z,99366.13
2022-11-09T08:40:58.903Z,99366.13
2022-11-09T08:43:28.761Z,99368.59
2022-11-09T08:45:57.194Z,99364.22
2022-11-09T08:48:25.873Z,99371.38
2022-11-09T08:50:55.557Z,99367.50
2022-11-09T08:53:24.740Z,99364.44
2022-11-09T08:55:53.938Z,99363.03
2022-11-09T08:58:23.152Z,99366.34
2022-11-09T09:00:53.235Z,99364.41
2022-11-09T09:03:21.689Z,99380.69
2022-11-09T09:05:50.161Z,99373.75
2022-11-09T09:08:22.297Z,99380.38
2022-11-09T09:10:50.949Z,99380.59
2022-11-09T09:13:22.826Z,99383.38
2022-11-09T09:15:52.754Z,99387.53
2022-11-09T09:18:21.685Z,99384.78
2022-11-09T09:20:50.636Z,99386.13
2022-11-09T09:23:19.229Z,99388.59
2022-11-09T09:25:48.443Z,99392.19
2022-11-09T09:28:17.038Z,99395.25
2022-11-09T09:30:45.548Z,99401.88
2022-11-09T09:33:15.340Z,99398.59
2022-11-09T09:35:43.806Z,99406.88
2022-11-09T09:38:12.376Z,99399.41
2022-11-09T09:40:53.861Z,99403.00
2022-11-09T09:43:33.472Z,99400.78
2022-11-09T09:46:08.147Z,99403.78
2022-11-09T09:48:43.985Z,99397.97
2022-11-09T09:51:22.111Z,99399.56
2022-11-09T09:53:56.558Z,99402.03
2022-11-09T09:56:31.604Z,99405.94
2022-11-09T09:59:07.825Z,99415.31
2022-11-09T10:01:41.177Z,99408.69
2022-11-09T10:04:22.375Z,99401.50
2022-11-09T10:07:04.817Z,99396.25
2022-11-09T10:10:11.074Z,99400.91
2022-11-09T10:13:20.568Z,99402.78
2022-11-09T10:15:55.623Z,99399.44
2022-11-09T10:18:47.555Z,99395.84
2022-11-09T10:21:42.721Z,99406.91
2022-11-09T10:24:28.295Z,99403.88
2022-11-09T10:26:58.842Z,99408.59
2022-11-09T10:29:33.089Z,99418.31
2022-11-09T10:32:14.013Z,99421.66
2022-11-09T10:34:52.788Z,99413.88
2022-11-09T10:37:29.057Z,99406.66
2022-11-09T10:40:04.523Z,99410.78
2022-11-09T10:42:32.936Z,99407.97
2022-11-09T10:45:16.028Z,99405.72
2022-11-09T10:47:52.096Z,99413.50
2022-11-09T10:50:31.112Z,99408.19
2022-11-09T10:53:22.959Z,99401.25
2022-11-09T10:55:54.851Z,99410.59
2022-11-09T10:58:33.233Z,99415.34
2022-11-09T11:01:05.891Z,99406.72
2022-11-09T11:03:38.379Z,99408.09
2022-11-09T11:06:08.547Z,99410.81
2022-11-09T11:08:41.584Z,99407.16
2022-11-09T11:11:33.704Z,99408.22
2022-11-09T11:14:22.727Z,99409.31
2022-11-09T11:16:53.484Z,99404.09
2022-11-09T11:19:34.274Z,99406.56
2022-11-09T11:22:27.372Z,99412.56
2022-11-09T11:25:00.428Z,99408.63
2022-11-09T11:27:41.893Z,99411.06
2022-11-09T11:30:17.317Z,99409.28
2022-11-09T11:32:50.489Z,99397.53
2022-11-09T11:35:32.353Z,99397.47
2022-11-09T11:38:14.376Z,99405.78
2022-11-09T11:40:53.601Z,99403.63
2022-11-09T11:43:40.851Z,99393.72
2022-11-09T11:46:19.183Z,99398.72
2022-11-09T11:49:43.174Z,99400.16
2022-11-09T11:52:19.069Z,99392.66
2022-11-09T11:55:27.984Z,99399.09
2022-11-09T11:58:28.464Z,99403.31
2022-11-09T12:01:07.881Z,99406.41
2022-11-09T12:03:51.950Z,99403.63
2022-11-09T12:06:45.470Z,99393.97
2022-11-09T12:09:29.175Z,99399.19
2022-11-09T12:12:13.994Z,99395.63
2022-11-09T12:14:59.640Z,99381.50
2022-11-09T12:17:43.061Z,99381.19
2022-11-09T12:20:30.029Z,99377.91
2022-11-09T12:23:18.483Z,99370.44
2022-11-09T12:25:56.982Z,99372.88
2022-11-09T12:29:01.923Z,99377.91
2022-11-09T12:31:46.847Z,99374.31
2022-11-09T12:34:24.572Z,99366.53
2022-11-09T12:36:59.036Z,99371.47
2022-11-09T12:39:33.732Z,99365.63
2022-11-09T12:42:10.752Z,99366.25
2022-11-09T12:44:48.059Z,99367.06
2022-11-09T12:47:24.400Z,99365.41
2022-11-09T12:49:54.991Z,99360.94
2022-11-09T12:52:29.067Z,99367.28
2022-11-09T12:54:58.628Z,99362.06
2022-11-09T12:57:29.992Z,99359.31
2022-11-09T13:00:00.388Z,99368.41
2022-11-09T13:02:35.996Z,99360.94
2022-11-09T13:05:08.808Z,99355.41
2022-11-09T13:07:50.941Z,99357.63
2022-11-09T13:10:34.507Z,99359.88
2022-11-09T13:13:22.943Z,99359.34
2022-11-09T13:16:36.379Z,99364.06
2022-11-09T13:19:13.315Z,99358.22
2022-11-09T13:21:41.758Z,99371.47
2022-11-09T13:24:52.879Z,99367.88
2022-11-09T13:27:43.645Z,99373.66
2022-11-09T13:30:50.841Z,99369.22
2022-11-09T13:33:25.795Z,99380.78
2022-11-09T13:36:21.577Z,99383.25
2022-11-09T13:39:30.565Z,99371.88
2022-11-09T13:41:59.103Z,99368.81
2022-11-09T13:44:32.936Z,99373.50
2022-11-09T13:47:04.559Z,99385.94
2022-11-09T13:49:45.609Z,99387.09
2022-11-09T13:52:59.213Z,99382.72
2022-11-09T13:55:33.682Z,99381.59
2022-11-09T13:58:26.441Z,99385.78
2022-11-09T14:00:54.944Z,99385.47
2022-11-09T14:03:26.336Z,99387.44
2022-11-09T14:05:58.990Z,99386.63
2022-11-09T14:08:36.247Z,99385.78
2022-11-09T14:11:43.962Z,99389.66
2022-11-09T14:14:52.898Z,99385.47
2022-11-09T14:17:29.123Z,99394.34
2022-11-09T14:20:12.174Z,99389.91
2022-11-09T14:22:42.154Z,99388.19
2022-11-09T14:25:21.569Z,99393.13
2022-11-09T14:27:57.155Z,99390.31
2022-11-09T14:30:30.440Z,99394.13
2022-11-09T14:33:00.300Z,99393.25
2022-11-09T14:35:32.280Z,99389.88
2022-11-09T14:38:15.877Z,99391.25
2022-11-09T14:40:48.809Z,99388.16
2022-11-09T14:43:28.801Z,99383.72
2022-11-09T14:46:00.440Z,99374.31
2022-11-09T14:48:30.925Z,99370.13
2022-11-09T14:51:03.305Z,99378.13
2022-11-09T14:53:36.225Z,99383.97
2022-11-09T14:56:09.355Z,99380.97
2022-11-09T14:58:42.614Z,99373.53
2022-11-09T15:01:21.438Z,99373.09
2022-11-09T15:04:09.724Z,99369.63
2022-11-09T15:06:45.468Z,99374.41
2022-11-09T15:09:19.452Z,99379.56
2022-11-09T15:11:49.762Z,99377.22
2022-11-09T15:14:29.249Z,99379.84
2022-11-09T15:17:15.295Z,99384.97
2022-11-09T15:19:53.368Z,99396.06
2022-11-09T15:22:52.510Z,99388.16
2022-11-09T15:25:26.620Z,99389.34
2022-11-09T15:28:04.982Z,99396.84
2022-11-09T15:30:38.938Z,99394.94
2022-11-09T15:33:27.398Z,99403.59
2022-11-09T15:35:59.051Z,99402.78
2022-11-09T15:38:35.929Z,99402.84
2022-11-09T15:41:12.015Z,99407.84
2022-11-09T15:43:42.877Z,99412.56
2022-11-09T15:46:15.055Z,99417.84
2022-11-09T15:48:46.196Z,99414.84
2022-11-09T15:51:16.221Z,99415.16
2022-11-09T15:53:45.097Z,99420.72
2022-11-09T15:56:19.680Z,99417.16
2022-11-09T15:58:52.532Z,99410.03
2022-11-09T16:01:21.074Z,99414.19
2022-11-09T16:03:50.425Z,99420.81
2022-11-09T16:06:23.653Z,99423.59
2022-11-09T16:08:53.411Z,99429.91
2022-11-09T16:11:21.892Z,99422.47
2022-11-09T16:13:51.917Z,99424.38
2022-11-09T16:16:20.413Z,99426.34
2022-11-09T16:18:49.127Z,99427.44
2022-11-09T16:21:19.032Z,99425.25
2022-11-09T16:23:47.664Z,99425.00
2022-11-09T16:26:18.541Z,99425.56
2022-11-09T16:28:48.042Z,99420.06
2022-11-09T16:31:25.262Z,99422.84
2022-11-09T16:33:58.713Z,99423.69
2022-11-09T16:36:27.825Z,99423.72
2022-11-09T16:38:58.512Z,99427.59
2022-11-09T16:41:27.608Z,99428.44
2022-11-09T16:43:58.767Z,99427.66
2022-11-09T16:46:30.908Z,99427.66
2022-11-09T16:49:03.400Z,99425.19
2022-11-09T16:51:32.197Z,99420.22
2022-11-09T16:54:00.871Z,99432.63
2022-11-09T16:56:30.633Z,99432.03
2022-11-09T16:58:59.420Z,99443.06
2022-11-09T17:01:29.767Z,99444.16
2022-11-09T17:03:59.047Z,99442.19
2022-11-09T17:06:28.404Z,99440.25
2022-11-09T17:08:58.763Z,99434.16
2022-11-09T17:11:27.586Z,99442.97
2022-11-09T17:13:57.918Z,99439.91
2022-11-09T17:16:30.814Z,99447.06
2022-11-09T17:19:00.318Z,99442.06
2022-11-09T17:21:32.300Z,99459.41
2022-11-09T17:24:04.433Z,99451.94
2022-11-09T17:26:34.081Z,99449.69
2022-11-09T17:29:02.892Z,99450.75
2022-11-09T17:31:35.149Z,99449.06
2022-11-09T17:34:04.526Z,99454.56
2022-11-09T17:37:02.577Z,99451.22
2022-11-09T17:39:29.845Z,99444.31
2022-11-09T17:41:58.940Z,99453.97
2022-11-09T17:44:28.395Z,99452.53
2022-11-09T17:46:58.778Z,99451.44
2022-11-09T17:49:28.625Z,99450.59
2022-11-09T17:51:58.997Z,99452.25
2022-11-09T17:54:35.461Z,99440.06
2022-11-09T17:57:06.534Z,99450.03
2022-11-09T17:59:35.525Z,99449.72
2022-11-09T18:02:06.662Z,99448.09
2022-11-09T18:04:38.433Z,99436.50
2022-11-09T18:07:08.401Z,99435.72
2022-11-09T18:09:42.387Z,99435.22
2022-11-09T18:12:13.714Z,99430.34
2022-11-09T18:14:43.230Z,99438.16
2022-11-09T18:17:14.660Z,99442.34
2022-11-09T18:19:44.584Z,99440.50
2022-11-09T18:22:14.470Z,99446.63
2022-11-09T18:24:44.031Z,99440.31
2022-11-09T18:27:15.022Z,99448.91
2022-11-09T18:29:45.386Z,99444.53
2022-11-09T18:32:17.066Z,99442.63
2022-11-09T18:34:48.732Z,99441.56
2022-11-09T18:37:18.367Z,99431.91
2022-11-09T18:39:50.816Z,99443.53
2022-11-09T18:42:20.968Z,99439.38
2022-11-09T18:44:51.635Z,99442.44
2022-11-09T18:47:26.956Z,99441.59
2022-11-09T18:49:57.222Z,99449.91
2022-11-09T18:52:27.311Z,99443.56
2022-11-09T18:54:57.348Z,99447.09
2022-11-09T18:57:28.650Z,99446.25
2022-11-09T18:59:59.024Z,99444.09
2022-11-09T19:02:32.178Z,99444.06
2022-11-09T19:05:04.828Z,99450.97
2022-11-09T19:07:36.443Z,99457.84
2022-11-09T19:10:08.184Z,99454.53
2022-11-09T19:12:38.398Z,99456.75
2022-11-09T19:15:09.514Z,99454.25
2022-11-09T19:17:40.617Z,99455.09
2022-11-09T19:20:14.291Z,99461.41
2022-11-09T19:22:44.526Z,99470.53
2022-11-09T19:25:14.903Z,99466.94
2022-11-09T19:27:44.538Z,99469.16
2022-11-09T19:30:14.628Z,99483.47
2022-11-09T19:32:47.310Z,99479.59
2022-11-09T19:35:21.812Z,99478.22
2022-11-09T19:37:55.214Z,99474.38
2022-11-09T19:40:24.868Z,99475.22
2022-11-09T19:42:54.826Z,99479.06
2022-11-09T19:45:24.688Z,99486.78
2022-11-09T19:47:57.662Z,99490.06
2022-11-09T19:50:28.846Z,99497.22
2022-11-09T19:53:01.124Z,99492.00
2022-11-09T19:55:31.849Z,99502.44
2022-11-09T19:58:01.651Z,99494.16
2022-11-09T20:00:32.433Z,99496.34
2022-11-09T20:03:03.960Z,99498.84
2022-11-09T20:05:38.749Z,99495.22
2022-11-09T20:08:08.866Z,99491.94
2022-11-09T20:10:40.150Z,99493.56
2022-11-09T20:13:09.407Z,99503.19
2022-11-09T20:15:39.305Z,99500.97
2022-11-09T20:18:10.778Z,99495.19
2022-11-09T20:20:41.004Z,99491.88
2022-11-09T20:23:11.993Z,99493.25
2022-11-09T20:25:42.593Z,99502.59
2022-11-09T20:28:13.869Z,99503.97
2022-11-09T20:30:43.953Z,99501.50
2022-11-09T20:33:16.977Z,99504.50
2022-11-09T20:35:55.203Z,99502.28
2022-11-09T20:38:24.966Z,99506.69
2022-11-09T20:40:58.911Z,99502.81
2022-11-09T20:43:29.645Z,99501.44
2022-11-09T20:46:04.090Z,99501.72
2022-11-09T20:48:53.234Z,99507.47
2022-11-09T20:51:25.453Z,99500.88
2022-11-09T20:53:54.918Z,99499.78
2022-11-09T20:56:24.899Z,99503.09
2022-11-09T20:58:54.914Z,99502.81
2022-11-09T21:01:29.959Z,99512.47
2022-11-09T21:04:02.030Z,99507.25
2022-11-09T21:06:32.921Z,99510.56
2022-11-09T21:09:06.321Z,99517.44
2022-11-09T21:11:58.676Z,99517.19
2022-11-09T21:14:27.538Z,99513.59
2022-11-09T21:16:57.013Z,99508.09
2022-11-09T21:19:27.804Z,99507.53
2022-11-09T21:21:57.264Z,99512.50
2022-11-09T21:24:43.267Z,99514.69
2022-11-09T21:27:46.834Z,99510.81
2022-11-09T21:30:19.364Z,99504.25
2022-11-09T21:32:47.781Z,99507.81
2022-11-09T21:35:19.098Z,99500.13
2022-11-09T21:37:47.523Z,99493.28
2022-11-09T21:40:17.010Z,99500.19
2022-11-09T21:42:45.631Z,99496.34
2022-11-09T21:45:16.447Z,99506.84
2022-11-09T21:47:44.963Z,99505.47
2022-11-09T21:50:16.819Z,99505.22
2022-11-09T21:52:46.740Z,99503.00
2022-11-09T21:55:15.267Z,99509.91
2022-11-09T21:57:43.608Z,99517.91
2022-11-09T22:00:14.840Z,99517.91
2022-11-09T22:02:43.276Z,99514.66
2022-11-09T22:05:12.017Z,99513.25
2022-11-09T22:07:40.429Z,99515.78
2022-11-09T22:10:11.784Z,99518.78
2022-11-09T22:12:57.942Z,99523.47
2022-11-09T22:15:43.682Z,99523.19
2022-11-09T22:18:32.479Z,99509.16
2022-11-09T22:20:59.885Z,99519.88
2022-11-09T22:23:28.253Z,99523.19
2022-11-09T22:26:01.564Z,99517.97
2022-11-09T22:28:29.954Z,99517.38
2022-11-09T22:31:02.250Z,99521.53
2022-11-09T22:33:31.236Z,99528.72
2022-11-09T22:36:03.344Z,99530.34
2022-11-09T22:38:33.523Z,99523.75
2022-11-09T22:41:04.586Z,99535.03
2022-11-09T22:43:34.412Z,99534.19
2022-11-09T22:46:05.304Z,99537.53
2022-11-09T22:48:33.942Z,99534.47
2022-11-09T22:51:03.253Z,99540.53
2022-11-09T22:53:31.844Z,99539.16
2022-11-09T22:56:03.421Z,99548.28
2022-11-09T22:58:32.322Z,99543.00
2022-11-09T23:01:08.443Z,99542.72
2022-11-09T23:03:37.370Z,99547.97
2022-11-09T23:06:08.627Z,99553.22
2022-11-09T23:08:38.305Z,99568.69
2022-11-09T23:11:13.994Z,99559.84
2022-11-09T23:13:45.145Z,99558.72
2022-11-09T23:16:15.835Z,99557.09
2022-11-09T23:18:56.707Z,99559.84
2022-11-09T23:21:28.456Z,99557.09
2022-11-09T23:24:00.493Z,99566.47
2022-11-09T23:26:31.275Z,99561.50
2022-11-09T23:29:00.352Z,99563.69
2022-11-09T23:31:28.742Z,99571.69
2022-11-09T23:33:59.031Z,99574.16
2022-11-09T23:36:28.133Z,99571.41
2022-11-09T23:38:56.514Z,99581.34
2022-11-09T23:41:24.906Z,99583.28
2022-11-09T23:43:57.637Z,99586.88
2022-11-09T23:46:25.957Z,99573.91
2022-11-09T23:48:54.318Z,99583.00
2022-11-09T23:51:23.385Z,99581.91
2022-11-09T23:53:51.749Z,99589.63
2022-11-09T23:56:21.216Z,99586.56
2022-11-09T23:58:51.779Z,99582.97
